createdAt,value
2023-04-02T00:00:04.177Z,51.65
2023-04-02T00:01:04.263Z,57.56
2023-04-02T00:02:04.343Z,56.72
2023-04-02T00:03:04.415Z,65.31
2023-04-02T00:04:04.379Z,64.99
2023-04-02T00:05:04.392Z,50.02
2023-04-02T00:06:04.416Z,38.07
2023-04-02T00:07:04.440Z,57.32
2023-04-02T00:08:04.488Z,63.80
2023-04-02T00:09:04.538Z,62.23
2023-04-02T00:10:04.555Z,62.11
2023-04-02T00:11:04.563Z,57.76
2023-04-02T00:12:04.618Z,73.35
2023-04-02T00:13:04.645Z,65.50
2023-04-02T00:14:04.685Z,39.01
2023-04-02T00:15:04.683Z,50.27
2023-04-02T00:16:04.748Z,57.53
2023-04-02T00:17:04.772Z,45.25
2023-04-02T00:18:04.819Z,37.25
2023-04-02T00:19:04.835Z,46.50
2023-04-02T00:20:04.869Z,42.05
2023-04-02T00:21:04.938Z,53.77
2023-04-02T00:22:04.955Z,43.32
2023-04-02T00:23:05.007Z,50.80
2023-04-02T00:24:05.059Z,58.44
2023-04-02T00:25:05.086Z,56.86
2023-04-02T00:26:05.132Z,58.93
2023-04-02T00:27:05.159Z,68.19
2023-04-02T00:28:05.202Z,63.30
2023-04-02T00:29:05.240Z,72.42
2023-04-02T00:30:05.269Z,56.67
2023-04-02T00:31:05.282Z,30.31
2023-04-02T00:32:05.382Z,47.92
2023-04-02T00:33:05.414Z,63.28
2023-04-02T00:34:05.408Z,65.52
2023-04-02T00:35:05.455Z,73.43
2023-04-02T00:36:05.514Z,73.70
2023-04-02T00:37:05.526Z,63.28
2023-04-02T00:38:05.571Z,66.10
2023-04-02T00:39:05.606Z,67.02
2023-04-02T00:40:05.650Z,67.95
2023-04-02T00:41:05.721Z,74.79
2023-04-02T00:42:05.868Z,68.08
2023-04-02T00:43:06.047Z,64.57
2023-04-02T00:44:06.203Z,73.90
2023-04-02T00:45:06.384Z,79.06
2023-04-02T00:46:06.543Z,81.10
2023-04-02T00:47:06.694Z,64.07
2023-04-02T00:48:06.921Z,72.77
2023-04-02T00:49:07.105Z,60.51
2023-04-02T00:50:07.273Z,77.22
2023-04-02T00:51:07.457Z,66.58
2023-04-02T00:52:07.631Z,62.06
2023-04-02T00:53:07.824Z,67.95
2023-04-02T00:54:07.983Z,66.35
2023-04-02T00:55:08.181Z,74.70
2023-04-02T00:56:08.367Z,80.16
2023-04-02T00:57:08.559Z,79.79
2023-04-02T00:58:08.725Z,81.51
2023-04-02T00:59:08.939Z,79.84
2023-04-02T01:00:09.064Z,88.96
2023-04-02T01:01:09.257Z,89.17
2023-04-02T01:02:09.438Z,90.37
2023-04-02T01:03:09.701Z,77.70
2023-04-02T01:04:09.751Z,81.11
2023-04-02T01:05:09.895Z,65.55
2023-04-02T01:06:10.049Z,72.69
2023-04-02T01:07:10.208Z,69.14
2023-04-02T01:08:10.391Z,68.74
2023-04-02T01:09:10.662Z,65.77
2023-04-02T01:10:10.836Z,62.98
2023-04-02T01:11:11.003Z,63.53
2023-04-02T01:12:11.157Z,63.42
2023-04-02T01:13:11.283Z,65.84
2023-04-02T01:14:11.392Z,57.45
2023-04-02T01:15:11.528Z,64.21
2023-04-02T01:16:11.751Z,66.76
2023-04-02T01:17:11.861Z,79.04
2023-04-02T01:18:12.027Z,73.87
2023-04-02T01:19:12.228Z,82.37
2023-04-02T01:20:12.354Z,81.34
2023-04-02T01:21:12.615Z,79.84
2023-04-02T01:22:12.739Z,73.57
2023-04-02T01:23:12.944Z,79.06
2023-04-02T01:24:13.105Z,91.27
2023-04-02T01:25:13.281Z,93.76
2023-04-02T01:26:13.460Z,78.29
2023-04-02T01:27:13.648Z,83.04
2023-04-02T01:28:13.828Z,94.48
2023-04-02T01:29:14.000Z,96.41
2023-04-02T01:30:14.191Z,92.87
2023-04-02T01:31:14.363Z,88.57
2023-04-02T01:32:14.562Z,86.24
2023-04-02T01:33:14.734Z,91.59
2023-04-02T01:34:14.982Z,79.79
2023-04-02T01:35:15.147Z,92.76
2023-04-02T01:36:15.395Z,89.89
2023-04-02T01:37:15.540Z,88.60
2023-04-02T01:38:15.721Z,76.01
2023-04-02T01:39:15.915Z,74.78
2023-04-02T01:40:16.090Z,81.07
2023-04-02T01:41:16.337Z,87.74
2023-04-02T01:42:16.524Z,86.52
2023-04-02T01:43:16.713Z,84.54
2023-04-02T01:44:16.907Z,89.94
2023-04-02T01:45:17.087Z,92.19
2023-04-02T01:46:17.282Z,97.27
2023-04-02T01:47:17.457Z,88.17
2023-04-02T01:48:17.730Z,98.33
2023-04-02T01:49:17.904Z,90.32
2023-04-02T01:50:18.108Z,93.09
2023-04-02T01:51:18.263Z,81.14
2023-04-02T01:52:18.437Z,80.06
2023-04-02T01:53:18.640Z,90.55
2023-04-02T01:54:18.798Z,91.45
2023-04-02T01:55:18.988Z,88.41
2023-04-02T01:56:19.186Z,89.95
2023-04-02T01:57:19.407Z,100.42
2023-04-02T01:58:19.547Z,104.57
2023-04-02T01:59:19.753Z,105.87
2023-04-02T02:00:19.948Z,102.41
2023-04-02T02:01:20.268Z,98.78
2023-04-02T02:02:20.347Z,93.40
2023-04-02T02:03:20.558Z,99.90
2023-04-02T02:04:20.686Z,98.67
2023-04-02T02:05:20.872Z,101.58
2023-04-02T02:06:21.063Z,91.95
2023-04-02T02:07:21.262Z,95.09
2023-04-02T02:08:21.412Z,101.75
2023-04-02T02:09:21.614Z,89.93
2023-04-02T02:10:21.793Z,102.74
2023-04-02T02:11:21.948Z,104.71
2023-04-02T02:12:22.107Z,102.01
2023-04-02T02:13:22.249Z,98.66
2023-04-02T02:14:22.411Z,101.97
2023-04-02T02:15:22.561Z,100.66
2023-04-02T02:16:22.808Z,76.47
2023-04-02T02:17:22.960Z,75.21
2023-04-02T02:18:23.099Z,83.37
2023-04-02T02:19:23.272Z,94.11
2023-04-02T02:20:23.419Z,92.52
2023-04-02T02:21:23.627Z,101.56
2023-04-02T02:22:23.779Z,105.68
2023-04-02T02:23:23.978Z,88.81
2023-04-02T02:24:24.154Z,89.78
2023-04-02T02:25:24.331Z,96.85
2023-04-02T02:26:24.502Z,88.05
2023-04-02T02:27:24.674Z,70.66
2023-04-02T02:28:24.873Z,71.35
2023-04-02T02:29:25.122Z,72.09
2023-04-02T02:30:25.386Z,74.12
2023-04-02T02:31:25.611Z,87.86
2023-04-02T02:32:25.871Z,74.75
2023-04-02T02:33:26.008Z,89.49
2023-04-02T02:34:26.171Z,88.63
2023-04-02T02:35:26.361Z,82.73
2023-04-02T02:36:26.611Z,86.61
2023-04-02T02:37:26.795Z,77.03
2023-04-02T02:38:27.031Z,79.35
2023-04-02T02:39:27.214Z,81.91
2023-04-02T02:40:27.262Z,86.52
2023-04-02T02:41:27.527Z,90.66
2023-04-02T02:42:27.755Z,85.58
2023-04-02T02:43:27.946Z,93.84
2023-04-02T02:44:28.113Z,99.60
2023-04-02T02:45:28.277Z,100.70
2023-04-02T02:46:28.561Z,91.61
2023-04-02T02:47:28.806Z,95.59
2023-04-02T02:48:28.952Z,100.86
2023-04-02T02:49:29.117Z,94.27
2023-04-02T02:50:29.301Z,91.68
2023-04-02T02:51:29.485Z,97.32
2023-04-02T02:52:29.786Z,98.01
2023-04-02T02:53:29.952Z,95.32
2023-04-02T02:54:30.133Z,95.07
2023-04-02T02:55:30.328Z,100.63
2023-04-02T02:56:30.579Z,101.10
2023-04-02T02:57:30.999Z,96.84
2023-04-02T02:58:31.125Z,97.34
2023-04-02T02:59:31.368Z,95.19
2023-04-02T03:00:31.617Z,98.90
2023-04-02T03:01:31.810Z,105.62
2023-04-02T03:02:32.093Z,111.27
2023-04-02T03:03:32.372Z,113.87
2023-04-02T03:04:32.469Z,120.22
2023-04-02T03:05:32.665Z,113.25
2023-04-02T03:06:32.826Z,108.92
2023-04-02T03:07:33.002Z,109.33
2023-04-02T03:08:33.166Z,99.58
2023-04-02T03:09:33.383Z,95.24
2023-04-02T03:10:33.536Z,97.13
2023-04-02T03:11:33.734Z,97.85
2023-04-02T03:12:34.023Z,82.37
2023-04-02T03:13:34.169Z,100.06
2023-04-02T03:14:34.418Z,93.27
2023-04-02T03:15:34.993Z,95.18
2023-04-02T03:16:34.625Z,86.59
2023-04-02T03:17:34.693Z,96.23
2023-04-02T03:18:34.772Z,86.24
2023-04-02T03:19:34.734Z,85.68
2023-04-02T03:20:34.789Z,89.61
2023-04-02T03:21:34.837Z,85.36
2023-04-02T03:22:34.889Z,90.88
2023-04-02T03:23:34.920Z,97.90
2023-04-02T03:24:34.963Z,95.07
2023-04-02T03:25:35.148Z,91.61
2023-04-02T03:26:35.059Z,81.67
2023-04-02T03:27:35.085Z,83.28
2023-04-02T03:28:35.133Z,89.57
2023-04-02T03:29:35.172Z,83.17
2023-04-02T03:30:35.225Z,75.45
2023-04-02T03:31:35.271Z,77.14
2023-04-02T03:32:35.323Z,84.57
2023-04-02T03:33:35.348Z,77.16
2023-04-02T03:34:35.382Z,81.69
2023-04-02T03:35:35.639Z,89.65
2023-04-02T03:36:35.481Z,91.30
2023-04-02T03:37:35.546Z,95.57
2023-04-02T03:38:35.559Z,97.10
2023-04-02T03:39:35.635Z,90.24
2023-04-02T03:40:35.760Z,83.16
2023-04-02T03:41:35.716Z,87.21
2023-04-02T03:42:35.970Z,89.95
2023-04-02T03:43:36.165Z,79.51
2023-04-02T03:44:36.338Z,85.16
2023-04-02T03:45:36.760Z,75.74
2023-04-02T03:46:36.628Z,75.46
2023-04-02T03:47:36.664Z,70.89
2023-04-02T03:48:36.622Z,66.11
2023-04-02T03:49:36.676Z,63.93
2023-04-02T03:50:36.719Z,80.18
2023-04-02T03:51:36.770Z,83.49
2023-04-02T03:52:36.827Z,82.62
2023-04-02T03:53:36.852Z,62.90
2023-04-02T03:54:36.892Z,69.59
2023-04-02T03:55:37.264Z,80.24
2023-04-02T03:56:36.978Z,73.55
2023-04-02T03:57:37.061Z,74.74
2023-04-02T03:58:37.075Z,73.29
2023-04-02T03:59:37.128Z,72.91
2023-04-02T04:00:37.194Z,76.48
2023-04-02T04:01:37.288Z,83.75
2023-04-02T04:02:37.285Z,90.26
2023-04-02T04:03:37.381Z,96.76
2023-04-02T04:04:37.349Z,105.20
2023-04-02T04:05:37.498Z,102.61
2023-04-02T04:06:37.445Z,101.71
2023-04-02T04:07:37.523Z,101.66
2023-04-02T04:08:37.525Z,101.55
2023-04-02T04:09:37.609Z,106.65
2023-04-02T04:10:37.615Z,105.14
2023-04-02T04:11:37.677Z,108.94
2023-04-02T04:12:37.754Z,108.30
2023-04-02T04:13:37.795Z,108.51
2023-04-02T04:14:37.832Z,111.79
2023-04-02T04:15:38.155Z,104.61
2023-04-02T04:16:37.997Z,105.19
2023-04-02T04:17:37.998Z,107.51
2023-04-02T04:18:38.075Z,110.82
2023-04-02T04:19:38.082Z,108.31
2023-04-02T04:20:38.130Z,105.01
2023-04-02T04:21:38.193Z,106.09
2023-04-02T04:22:38.238Z,107.63
2023-04-02T04:23:38.292Z,107.97
2023-04-02T04:24:38.339Z,110.70
2023-04-02T04:25:38.361Z,110.76
2023-04-02T04:26:38.410Z,110.09
2023-04-02T04:27:38.484Z,116.49
2023-04-02T04:28:38.592Z,114.36
2023-04-02T04:29:38.551Z,110.24
2023-04-02T04:30:38.625Z,115.03
2023-04-02T04:31:38.693Z,109.56
2023-04-02T04:32:38.757Z,108.38
2023-04-02T04:33:38.779Z,95.51
2023-04-02T04:34:38.809Z,110.54
2023-04-02T04:35:39.391Z,94.66
2023-04-02T04:36:38.916Z,97.53
2023-04-02T04:37:39.832Z,101.67
2023-04-02T04:38:39.013Z,86.65
2023-04-02T04:39:39.081Z,80.64
2023-04-02T04:40:39.112Z,91.91
2023-04-02T04:41:39.190Z,96.72
2023-04-02T04:42:39.213Z,92.31
2023-04-02T04:43:39.279Z,87.47
2023-04-02T04:44:39.310Z,95.43
2023-04-02T04:45:39.392Z,90.13
2023-04-02T04:46:39.422Z,89.39
2023-04-02T04:47:39.456Z,89.92
2023-04-02T04:48:39.516Z,89.05
2023-04-02T04:49:39.592Z,95.01
2023-04-02T04:50:39.757Z,97.86
2023-04-02T04:51:39.899Z,98.22
2023-04-02T04:52:40.082Z,101.09
2023-04-02T04:53:40.253Z,96.98
2023-04-02T04:54:40.406Z,106.56
2023-04-02T04:55:40.606Z,100.67
2023-04-02T04:56:40.741Z,101.39
2023-04-02T04:57:40.892Z,109.07
2023-04-02T04:58:41.032Z,109.93
2023-04-02T04:59:41.327Z,100.60
2023-04-02T05:00:41.409Z,98.82
2023-04-02T05:01:41.611Z,96.96
2023-04-02T05:02:41.760Z,91.82
2023-04-02T05:03:41.874Z,84.05
2023-04-02T05:04:42.087Z,84.49
2023-04-02T05:05:42.139Z,97.54
2023-04-02T05:06:42.390Z,92.06
2023-04-02T05:07:42.489Z,92.66
2023-04-02T05:08:42.662Z,92.31
2023-04-02T05:09:42.813Z,90.37
2023-04-02T05:10:43.076Z,88.63
2023-04-02T05:11:43.245Z,96.15
2023-04-02T05:12:43.396Z,88.98
2023-04-02T05:13:43.597Z,94.15
2023-04-02T05:14:43.789Z,95.58
2023-04-02T05:15:44.009Z,92.98
2023-04-02T05:16:44.154Z,93.10
2023-04-02T05:17:44.347Z,92.09
2023-04-02T05:18:44.515Z,96.78
2023-04-02T05:19:44.696Z,84.28
2023-04-02T05:20:44.859Z,86.22
2023-04-02T05:21:45.049Z,92.43
2023-04-02T05:22:45.209Z,90.06
2023-04-02T05:23:45.300Z,92.65
2023-04-02T05:24:45.446Z,96.55
2023-04-02T05:25:45.625Z,101.87
2023-04-02T05:26:45.717Z,102.43
2023-04-02T05:27:45.765Z,101.70
2023-04-02T05:28:45.800Z,92.80
2023-04-02T05:29:45.864Z,99.17
2023-04-02T05:30:45.878Z,100.57
2023-04-02T05:31:46.020Z,96.48
2023-04-02T05:32:46.042Z,88.75
2023-04-02T05:33:46.037Z,89.01
2023-04-02T05:34:46.078Z,94.39
2023-04-02T05:35:46.181Z,86.36
2023-04-02T05:36:46.202Z,89.03
2023-04-02T05:37:46.237Z,95.59
2023-04-02T05:38:46.252Z,88.52
2023-04-02T05:39:46.313Z,93.09
2023-04-02T05:40:46.361Z,91.81
2023-04-02T05:41:46.393Z,86.74
2023-04-02T05:42:46.462Z,86.41
2023-04-02T05:43:46.514Z,92.68
2023-04-02T05:44:46.524Z,97.38
2023-04-02T05:45:46.588Z,97.58
2023-04-02T05:46:46.664Z,98.94
2023-04-02T05:47:46.699Z,103.66
2023-04-02T05:48:46.723Z,99.68
2023-04-02T05:49:46.770Z,96.05
2023-04-02T05:50:46.784Z,102.30
2023-04-02T05:51:46.829Z,101.98
2023-04-02T05:52:46.890Z,101.47
2023-04-02T05:53:46.934Z,100.87
2023-04-02T05:54:46.971Z,100.89
2023-04-02T05:55:47.010Z,96.65
2023-04-02T05:56:47.088Z,102.58
2023-04-02T05:57:56.704Z,101.57
2023-04-02T05:58:48.174Z,101.78
2023-04-02T05:59:47.083Z,102.61
2023-04-02T06:00:47.063Z,103.02
2023-04-02T06:01:47.074Z,104.28
2023-04-02T06:02:47.085Z,107.47
2023-04-02T06:03:47.178Z,110.19
2023-04-02T06:04:47.055Z,113.98
2023-04-02T06:05:47.051Z,112.44
2023-04-02T06:06:47.024Z,114.62
2023-04-02T06:07:47.018Z,112.06
2023-04-02T06:08:47.045Z,117.47
2023-04-02T06:09:47.089Z,114.36
2023-04-02T06:10:47.117Z,118.68
2023-04-02T06:11:47.132Z,117.13
2023-04-02T06:12:47.189Z,118.01
2023-04-02T06:13:47.221Z,123.62
2023-04-02T06:14:47.259Z,122.59
2023-04-02T06:15:47.745Z,122.74
2023-04-02T06:16:47.322Z,127.65
2023-04-02T06:17:47.370Z,133.45
2023-04-02T06:18:47.363Z,130.32
2023-04-02T06:19:47.384Z,124.10
2023-04-02T06:20:47.398Z,124.93
2023-04-02T06:21:47.424Z,137.49
2023-04-02T06:22:47.468Z,132.92
2023-04-02T06:23:47.483Z,135.60
2023-04-02T06:24:47.485Z,131.82
2023-04-02T06:25:47.512Z,132.83
2023-04-02T06:26:47.508Z,135.18
2023-04-02T06:27:47.530Z,146.24
2023-04-02T06:28:47.549Z,150.39
2023-04-02T06:29:47.547Z,154.17
2023-04-02T06:30:47.581Z,152.07
2023-04-02T06:31:49.417Z,153.45
2023-04-02T06:32:47.605Z,151.06
2023-04-02T06:33:47.577Z,147.55
2023-04-02T06:34:47.614Z,144.67
2023-04-02T06:35:47.654Z,143.61
2023-04-02T06:36:47.629Z,141.98
2023-04-02T06:37:47.631Z,139.09
2023-04-02T06:38:47.623Z,137.50
2023-04-02T06:39:47.633Z,138.90
2023-04-02T06:40:47.607Z,133.78
2023-04-02T06:41:47.616Z,138.14
2023-04-02T06:42:47.630Z,136.62
2023-04-02T06:43:47.609Z,134.62
2023-04-02T06:44:47.634Z,136.89
2023-04-02T06:45:47.670Z,136.03
2023-04-02T06:46:47.635Z,133.21
2023-04-02T06:47:47.630Z,137.01
2023-04-02T06:48:47.612Z,134.35
2023-04-02T06:49:47.642Z,135.17
2023-04-02T06:50:47.608Z,136.04
2023-04-02T06:51:47.629Z,139.38
2023-04-02T06:52:47.686Z,139.97
2023-04-02T06:53:47.728Z,134.24
2023-04-02T06:54:47.880Z,130.20
2023-04-02T06:55:47.864Z,131.43
2023-04-02T06:56:47.928Z,135.44
2023-04-02T06:57:47.986Z,135.14
2023-04-02T06:58:48.027Z,138.26
2023-04-02T06:59:48.091Z,139.21
2023-04-02T07:00:48.148Z,137.60
2023-04-02T07:01:48.230Z,136.68
2023-04-02T07:02:48.317Z,135.47
2023-04-02T07:03:48.297Z,136.56
2023-04-02T07:04:48.393Z,135.37
2023-04-02T07:05:48.412Z,136.47
2023-04-02T07:06:48.454Z,135.99
2023-04-02T07:07:48.540Z,137.89
2023-04-02T07:08:48.563Z,139.25
2023-04-02T07:09:48.609Z,141.11
2023-04-02T07:10:48.628Z,139.21
2023-04-02T07:11:48.656Z,138.15
2023-04-02T07:12:48.727Z,142.38
2023-04-02T07:13:48.712Z,138.25
2023-04-02T07:14:48.751Z,140.30
2023-04-02T07:15:48.776Z,140.74
2023-04-02T07:16:48.765Z,144.45
2023-04-02T07:17:48.817Z,139.97
2023-04-02T07:18:48.808Z,142.88
2023-04-02T07:19:48.814Z,146.88
2023-04-02T07:20:48.813Z,146.15
2023-04-02T07:21:48.814Z,145.38
2023-04-02T07:22:48.801Z,144.68
2023-04-02T07:23:48.818Z,149.44
2023-04-02T07:24:48.821Z,146.95
2023-04-02T07:25:48.818Z,147.45
2023-04-02T07:26:48.822Z,144.99
2023-04-02T07:27:48.823Z,146.61
2023-04-02T07:28:48.823Z,142.36
2023-04-02T07:29:48.803Z,143.48
2023-04-02T07:30:48.842Z,141.51
2023-04-02T07:31:48.978Z,144.39
2023-04-02T07:32:48.885Z,146.67
2023-04-02T07:33:48.867Z,143.95
2023-04-02T07:34:48.881Z,142.61
2023-04-02T07:35:48.891Z,142.83
2023-04-02T07:36:48.899Z,143.27
2023-04-02T07:37:48.939Z,139.27
2023-04-02T07:38:48.947Z,143.92
2023-04-02T07:39:49.008Z,139.87
2023-04-02T07:40:49.040Z,136.35
2023-04-02T07:41:49.075Z,138.36
2023-04-02T07:42:49.125Z,137.43
2023-04-02T07:43:49.191Z,139.06
2023-04-02T07:44:49.224Z,137.08
2023-04-02T07:45:49.293Z,138.70
2023-04-02T07:46:49.296Z,138.07
2023-04-02T07:47:49.351Z,140.34
2023-04-02T07:48:49.407Z,139.18
2023-04-02T07:49:49.454Z,140.30
2023-04-02T07:50:49.514Z,140.23
2023-04-02T07:51:49.542Z,140.80
2023-04-02T07:52:49.583Z,137.95
2023-04-02T07:53:49.623Z,137.29
2023-04-02T07:54:49.656Z,137.57
2023-04-02T07:55:49.694Z,139.89
2023-04-02T07:56:49.751Z,141.25
2023-04-02T07:57:49.773Z,137.20
2023-04-02T07:58:49.796Z,139.24
2023-04-02T07:59:49.818Z,136.38
2023-04-02T08:00:49.838Z,135.48
2023-04-02T08:01:49.886Z,138.50
2023-04-02T08:02:49.871Z,133.96
2023-04-02T08:03:50.803Z,132.10
2023-04-02T08:04:49.911Z,133.66
2023-04-02T08:05:49.922Z,133.02
2023-04-02T08:06:49.962Z,132.66
2023-04-02T08:07:49.964Z,133.47
2023-04-02T08:08:49.990Z,130.57
2023-04-02T08:09:50.021Z,127.73
2023-04-02T08:10:50.024Z,129.63
2023-04-02T08:11:50.046Z,129.82
2023-04-02T08:12:50.047Z,128.76
2023-04-02T08:13:50.060Z,127.64
2023-04-02T08:14:50.047Z,126.10
2023-04-02T08:15:50.058Z,123.54
2023-04-02T08:16:50.104Z,126.69
2023-04-02T08:17:50.154Z,122.31
2023-04-02T08:18:50.056Z,123.35
2023-04-02T08:19:55.113Z,118.36
2023-04-02T08:20:51.070Z,118.59
2023-04-02T08:21:50.059Z,118.69
2023-04-02T08:22:50.076Z,118.42
2023-04-02T08:23:50.047Z,114.54
2023-04-02T08:24:50.048Z,119.20
2023-04-02T08:25:50.023Z,116.31
2023-04-02T08:26:50.030Z,116.23
2023-04-02T08:27:50.013Z,115.17
2023-04-02T08:28:49.994Z,110.80
2023-04-02T08:29:49.989Z,111.65
2023-04-02T08:30:50.048Z,109.16
2023-04-02T08:31:49.987Z,109.32
2023-04-02T08:32:50.006Z,106.25
2023-04-02T08:33:49.971Z,107.48
2023-04-02T08:34:49.962Z,106.62
2023-04-02T08:35:49.979Z,105.15
2023-04-02T08:36:49.956Z,103.03
2023-04-02T08:37:49.946Z,98.86
2023-04-02T08:38:49.940Z,99.05
2023-04-02T08:39:49.926Z,99.21
2023-04-02T08:40:49.925Z,97.31
2023-04-02T08:41:49.974Z,95.58
2023-04-02T08:42:50.023Z,92.64
2023-04-02T08:43:50.097Z,93.44
2023-04-02T08:44:50.152Z,94.08
2023-04-02T08:45:50.205Z,91.12
2023-04-02T08:46:50.291Z,93.81
2023-04-02T08:47:50.352Z,92.26
2023-04-02T08:48:50.383Z,92.44
2023-04-02T08:49:50.420Z,92.04
2023-04-02T08:50:50.469Z,93.78
2023-04-02T08:51:50.492Z,90.98
2023-04-02T08:52:50.548Z,87.15
2023-04-02T08:53:50.624Z,88.50
2023-04-02T08:54:50.629Z,87.62
2023-04-02T08:55:50.718Z,85.44
2023-04-02T08:56:50.747Z,84.21
2023-04-02T08:57:50.808Z,82.93
2023-04-02T08:58:50.879Z,82.45
2023-04-02T08:59:50.938Z,79.86
2023-04-02T09:00:50.975Z,80.46
2023-04-02T09:01:51.130Z,77.51
2023-04-02T09:02:51.164Z,75.98
2023-04-02T09:03:51.159Z,74.44
2023-04-02T09:04:51.211Z,71.09
2023-04-02T09:05:51.197Z,72.63
2023-04-02T09:06:51.217Z,70.69
2023-04-02T09:07:51.228Z,73.20
2023-04-02T09:08:51.258Z,68.90
2023-04-02T09:09:51.245Z,74.57
2023-04-02T09:10:51.256Z,69.09
2023-04-02T09:11:51.277Z,66.68
2023-04-02T09:12:51.268Z,64.75
2023-04-02T09:13:51.266Z,64.94
2023-04-02T09:14:51.297Z,63.81
2023-04-02T09:15:51.310Z,62.28
2023-04-02T09:16:51.286Z,61.11
2023-04-02T09:17:54.407Z,57.48
2023-04-02T09:18:51.303Z,63.38
2023-04-02T09:19:51.286Z,61.48
2023-04-02T09:20:51.265Z,63.03
2023-04-02T09:21:51.268Z,60.10
2023-04-02T09:22:51.252Z,55.33
2023-04-02T09:23:51.250Z,58.83
2023-04-02T09:24:51.257Z,56.81
2023-04-02T09:26:02.932Z,55.01
2023-04-02T09:26:52.227Z,55.34
2023-04-02T09:27:51.248Z,55.58
2023-04-02T09:28:51.232Z,55.45
2023-04-02T09:29:51.210Z,55.74
2023-04-02T09:30:51.201Z,49.84
2023-04-02T09:31:51.221Z,44.01
2023-04-02T09:32:51.347Z,46.61
2023-04-02T09:33:51.178Z,51.62
2023-04-02T09:34:51.210Z,53.71
2023-04-02T09:35:51.196Z,48.74
2023-04-02T09:36:51.182Z,42.09
2023-04-02T09:37:51.211Z,36.28
2023-04-02T09:38:51.156Z,30.58
2023-04-02T09:39:51.157Z,31.13
2023-04-02T09:40:51.143Z,31.80
2023-04-02T09:42:02.723Z,33.86
2023-04-02T09:42:52.130Z,33.96
2023-04-02T09:43:51.124Z,34.88
2023-04-02T09:44:51.110Z,35.89
2023-04-02T09:45:51.123Z,33.81
2023-04-02T09:46:51.173Z,25.08
2023-04-02T09:47:51.136Z,27.03
2023-04-02T09:48:51.082Z,32.16
2023-04-02T09:49:51.096Z,30.06
2023-04-02T09:50:51.071Z,31.23
2023-04-02T09:51:51.064Z,25.85
2023-04-02T09:52:51.052Z,25.16
2023-04-02T09:53:51.063Z,26.79
2023-04-02T09:54:51.059Z,27.76
2023-04-02T09:55:51.036Z,26.52
2023-04-02T09:56:51.036Z,30.56
2023-04-02T09:57:51.043Z,26.13
2023-04-02T09:58:51.026Z,30.64
2023-04-02T09:59:51.006Z,26.17
2023-04-02T10:00:51.028Z,24.52
2023-04-02T10:01:51.007Z,25.02
2023-04-02T10:02:50.979Z,32.51
2023-04-02T10:03:51.011Z,26.19
2023-04-02T10:04:51.009Z,28.51
2023-04-02T10:05:50.974Z,35.39
2023-04-02T10:06:50.946Z,32.75
2023-04-02T10:07:50.946Z,32.30
2023-04-02T10:08:50.971Z,40.14
2023-04-02T10:09:51.085Z,33.86
2023-04-02T10:10:51.190Z,36.04
2023-04-02T10:11:51.350Z,42.05
2023-04-02T10:12:51.493Z,52.66
2023-04-02T10:13:51.634Z,55.16
2023-04-02T10:14:51.752Z,61.45
2023-04-02T10:15:51.906Z,63.19
2023-04-02T10:16:52.166Z,75.16
2023-04-02T10:17:52.220Z,65.12
2023-04-02T10:18:52.406Z,83.55
2023-04-02T10:19:52.531Z,72.50
2023-04-02T10:20:52.597Z,59.13
2023-04-02T10:21:52.749Z,68.31
2023-04-02T10:22:52.883Z,62.08
2023-04-02T10:23:53.049Z,48.45
2023-04-02T10:24:53.188Z,55.28
2023-04-02T10:25:53.334Z,64.83
2023-04-02T10:26:53.493Z,63.68
2023-04-02T10:27:53.641Z,59.98
2023-04-02T10:28:53.797Z,72.35
2023-04-02T10:29:53.963Z,56.67
2023-04-02T10:30:54.159Z,59.03
2023-04-02T10:31:54.271Z,65.98
2023-04-02T10:32:54.421Z,70.46
2023-04-02T10:33:54.542Z,51.45
2023-04-02T10:34:54.683Z,52.51
2023-04-02T10:35:54.811Z,58.81
2023-04-02T10:36:54.932Z,61.57
2023-04-02T10:37:55.161Z,75.82
2023-04-02T10:38:55.322Z,79.17
2023-04-02T10:39:55.424Z,76.67
2023-04-02T10:40:57.033Z,60.91
2023-04-02T10:41:55.643Z,48.66
2023-04-02T10:42:55.652Z,57.83
2023-04-02T10:43:57.834Z,68.81
2023-04-02T10:44:55.679Z,70.70
2023-04-02T10:45:55.655Z,59.91
2023-04-02T10:46:55.630Z,65.52
2023-04-02T10:47:55.748Z,74.14
2023-04-02T10:48:55.661Z,68.30
2023-04-02T10:49:55.653Z,73.41
2023-04-02T10:50:55.634Z,68.66
2023-04-02T10:51:55.625Z,69.16
2023-04-02T10:52:56.667Z,70.27
2023-04-02T10:53:55.630Z,67.46
2023-04-02T10:54:55.609Z,64.46
2023-04-02T10:55:55.608Z,64.44
2023-04-02T10:56:55.634Z,68.55
2023-04-02T10:57:55.592Z,66.02
2023-04-02T10:58:57.252Z,64.49
2023-04-02T10:59:55.577Z,68.94
2023-04-02T11:00:55.563Z,70.97
2023-04-02T11:01:55.633Z,67.26
2023-04-02T11:02:55.632Z,62.36
2023-04-02T11:03:57.828Z,57.79
2023-04-02T11:04:57.331Z,45.27
2023-04-02T11:05:56.939Z,57.86
2023-04-02T11:07:07.158Z,48.93
2023-04-02T11:07:56.733Z,57.88
2023-04-02T11:08:55.763Z,44.55
2023-04-02T11:09:55.732Z,42.39
2023-04-02T11:10:55.737Z,58.99
2023-04-02T11:11:55.712Z,65.12
2023-04-02T11:12:55.720Z,50.56
2023-04-02T11:13:55.715Z,48.43
2023-04-02T11:14:55.691Z,37.11
2023-04-02T11:15:55.727Z,35.35
2023-04-02T11:16:55.683Z,38.06
2023-04-02T11:17:55.718Z,46.63
2023-04-02T11:18:55.659Z,56.51
2023-04-02T11:19:55.669Z,41.53
2023-04-02T11:20:55.682Z,43.25
2023-04-02T11:21:59.259Z,43.70
2023-04-02T11:22:55.650Z,44.38
2023-04-02T11:23:55.650Z,45.31
2023-04-02T11:24:55.636Z,47.79
2023-04-02T11:25:55.641Z,57.15
2023-04-02T11:26:55.612Z,69.64
2023-04-02T11:27:55.615Z,50.23
2023-04-02T11:28:55.600Z,52.48
2023-04-02T11:29:55.604Z,48.54
2023-04-02T11:30:55.585Z,60.39
2023-04-02T11:31:55.588Z,59.80
2023-04-02T11:32:55.582Z,57.96
2023-04-02T11:33:55.574Z,42.96
2023-04-02T11:35:55.566Z,36.65
2023-04-02T11:36:55.552Z,42.37
2023-04-02T11:37:55.539Z,32.06
2023-04-02T11:38:59.617Z,46.56
2023-04-02T11:39:56.513Z,46.64
2023-04-02T11:40:55.540Z,44.82
2023-04-02T11:41:55.503Z,50.48
2023-04-02T11:42:55.502Z,48.06
2023-04-02T11:43:55.502Z,52.40
2023-04-02T11:44:55.512Z,41.62
2023-04-02T11:45:55.726Z,35.47
2023-04-02T11:46:55.531Z,38.95
2023-04-02T11:47:55.518Z,35.20
2023-04-02T11:48:55.505Z,27.68
2023-04-02T11:49:55.534Z,36.69
2023-04-02T11:50:55.597Z,30.62
2023-04-02T11:52:09.052Z,26.14
2023-04-02T11:52:56.645Z,18.11
2023-04-02T11:53:55.612Z,13.13
2023-04-02T11:54:55.617Z,17.94
2023-04-02T11:55:55.600Z,31.75
2023-04-02T11:56:55.657Z,35.79
2023-04-02T11:57:55.579Z,26.06
2023-04-02T11:58:55.579Z,39.62
2023-04-02T11:59:55.570Z,40.84
2023-04-02T12:00:55.613Z,39.48
2023-04-02T12:01:55.680Z,32.34
2023-04-02T12:02:55.768Z,37.82
2023-04-02T12:03:55.755Z,26.10
2023-04-02T12:04:55.842Z,32.34
2023-04-02T12:05:55.857Z,36.33
2023-04-02T12:06:55.927Z,48.71
2023-04-02T12:07:55.994Z,50.10
2023-04-02T12:08:58.062Z,61.24
2023-04-02T12:09:56.109Z,63.89
2023-04-02T12:10:56.170Z,55.78
2023-04-02T12:11:56.218Z,55.96
2023-04-02T12:12:56.269Z,63.11
2023-04-02T12:13:56.309Z,65.70
2023-04-02T12:14:56.353Z,53.64
2023-04-02T12:15:56.414Z,61.09
2023-04-02T12:16:56.492Z,64.68
2023-04-02T12:17:56.506Z,60.72
2023-04-02T12:18:56.565Z,54.34
2023-04-02T12:19:56.632Z,47.99
2023-04-02T12:20:56.652Z,50.64
2023-04-02T12:21:56.714Z,56.77
2023-04-02T12:22:56.754Z,62.38
2023-04-02T12:23:56.817Z,63.04
2023-04-02T12:24:56.951Z,61.50
2023-04-02T12:25:56.964Z,53.20
2023-04-02T12:26:57.052Z,51.40
2023-04-02T12:27:57.061Z,53.90
2023-04-02T12:28:57.088Z,48.18
2023-04-02T12:29:57.116Z,51.60
2023-04-02T12:30:57.213Z,51.40
2023-04-02T12:31:57.244Z,62.59
2023-04-02T12:32:57.340Z,53.42
2023-04-02T12:33:57.336Z,59.70
2023-04-02T12:34:57.392Z,53.94
2023-04-02T12:35:57.630Z,57.35
2023-04-02T12:36:57.513Z,63.85
2023-04-02T12:37:57.534Z,49.71
2023-04-02T12:38:57.560Z,46.81
2023-04-02T12:39:57.598Z,51.27
2023-04-02T12:40:57.640Z,39.75
2023-04-02T12:41:57.657Z,39.10
2023-04-02T12:42:57.691Z,45.53
2023-04-02T12:43:57.721Z,43.77
2023-04-02T12:44:57.796Z,49.40
2023-04-02T12:45:57.983Z,45.22
2023-04-02T12:46:57.883Z,46.79